CPA901 VHHH-RPLL
Flight info
| Callsign | CPA901 |
|---|---|
| Flight time | 1h 42m |
| Altitude | 39000 |
| Route | DALOL V642 NOMAN A461 AVMUP W16 TADEL TADEL7R |
| Aircraft | B77W/H-SDE1E2E3FGHIJ2J3J4J5M1RWXY/LB1D1 |
Departure
| Time | 2026-05-04 15:42 |
|---|---|
| Airport | Hong Kong International Airport (VHHH) |
Arrival
| Time | 2026-05-04 17:24 |
|---|---|
| Airport | Ninoy Aquino International Airport (RPLL) |
| Time | Latitude | Longitude | Altitude | Speed | Heading |
|---|---|---|---|---|---|
| 2026-05-04 15:07 | 22.31606 | 113.93283 | 37 ft | 0 kts | 109° |
| 2026-05-04 15:28 | 22.31612 | 113.93248 | 37 ft | 3 kts | 108° |
| 2026-05-04 15:28 | 22.31619 | 113.93226 | 37 ft | 4 kts | 100° |
| 2026-05-04 15:28 | 22.31612 | 113.93170 | 37 ft | 4 kts | 61° |
| 2026-05-04 15:29 | 22.31600 | 113.93146 | 37 ft | 2 kts | 71° |
| 2026-05-04 15:30 | 22.31589 | 113.93112 | 37 ft | 0 kts | 71° |
| 2026-05-04 15:32 | 22.31595 | 113.93128 | 37 ft | 10 kts | 68° |
| 2026-05-04 15:32 | 22.31753 | 113.93162 | 37 ft | 14 kts | 340° |
| 2026-05-04 15:33 | 22.31855 | 113.93030 | 37 ft | 14 kts | 251° |
| 2026-05-04 15:34 | 22.31757 | 113.92733 | 37 ft | 14 kts | 252° |
| 2026-05-04 15:34 | 22.31727 | 113.92633 | 37 ft | 14 kts | 252° |
| 2026-05-04 15:34 | 22.31656 | 113.92409 | 37 ft | 29 kts | 250° |
| 2026-05-04 15:35 | 22.31511 | 113.91954 | 37 ft | 29 kts | 252° |
| 2026-05-04 15:35 | 22.31478 | 113.91852 | 37 ft | 13 kts | 242° |
| 2026-05-04 15:35 | 22.31386 | 113.91816 | 37 ft | 22 kts | 163° |
| 2026-05-04 15:36 | 22.31100 | 113.91922 | 37 ft | 10 kts | 156° |
| 2026-05-04 15:36 | 22.31058 | 113.91978 | 37 ft | 11 kts | 89° |
| 2026-05-04 15:36 | 22.31022 | 113.92045 | 37 ft | 14 kts | 152° |
| 2026-05-04 15:37 | 22.30913 | 113.92089 | 36 ft | 18 kts | 161° |
| 2026-05-04 15:37 | 22.30799 | 113.92131 | 36 ft | 18 kts | 161° |
| 2026-05-04 15:37 | 22.30682 | 113.92174 | 37 ft | 18 kts | 161° |
| 2026-05-04 15:37 | 22.30575 | 113.92174 | 37 ft | 16 kts | 232° |
| 2026-05-04 15:38 | 22.30527 | 113.92049 | 37 ft | 27 kts | 249° |
| 2026-05-04 15:38 | 22.30441 | 113.91785 | 37 ft | 40 kts | 251° |
| 2026-05-04 15:38 | 22.30353 | 113.91508 | 37 ft | 38 kts | 251° |
| 2026-05-04 15:38 | 22.30270 | 113.91251 | 37 ft | 30 kts | 250° |
| 2026-05-04 15:39 | 22.30200 | 113.91039 | 37 ft | 30 kts | 250° |
| 2026-05-04 15:39 | 22.30133 | 113.90826 | 36 ft | 30 kts | 252° |
| 2026-05-04 15:39 | 22.29998 | 113.90403 | 37 ft | 30 kts | 250° |
| 2026-05-04 15:40 | 22.29932 | 113.90190 | 37 ft | 30 kts | 251° |
| 2026-05-04 15:40 | 22.29862 | 113.89978 | 37 ft | 30 kts | 250° |
| 2026-05-04 15:40 | 22.29804 | 113.89806 | 37 ft | 10 kts | 250° |
| 2026-05-04 15:40 | 22.29756 | 113.89762 | 37 ft | 11 kts | 166° |
| 2026-05-04 15:41 | 22.29684 | 113.89793 | 35 ft | 13 kts | 159° |
| 2026-05-04 15:41 | 22.29637 | 113.89859 | 35 ft | 13 kts | 71° |
| 2026-05-04 15:41 | 22.29677 | 113.89981 | 35 ft | 30 kts | 71° |
| 2026-05-04 15:41 | 22.29828 | 113.90448 | 36 ft | 107 kts | 70° |
| 2026-05-04 15:42 | 22.30159 | 113.91472 | 39 ft | 177 kts | 70° |
| 2026-05-04 15:42 | 22.30566 | 113.92742 | 745 ft | 174 kts | 73° |
| 2026-05-04 15:42 | 22.30970 | 113.93973 | 1671 ft | 176 kts | 73° |
| 2026-05-04 15:42 | 22.31386 | 113.95270 | 2315 ft | 192 kts | 73° |
| 2026-05-04 15:43 | 22.31854 | 113.96736 | 2638 ft | 221 kts | 72° |
| 2026-05-04 15:43 | 22.32372 | 113.98350 | 3341 ft | 233 kts | 72° |
| 2026-05-04 15:43 | 22.32918 | 114.00045 | 4083 ft | 246 kts | 71° |
| 2026-05-04 15:43 | 22.33492 | 114.01833 | 4885 ft | 257 kts | 71° |
| 2026-05-04 15:44 | 22.33878 | 114.03728 | 5522 ft | 271 kts | 91° |
| 2026-05-04 15:44 | 22.33441 | 114.05714 | 6390 ft | 276 kts | 116° |
| 2026-05-04 15:44 | 22.32323 | 114.07382 | 7384 ft | 276 kts | 137° |
| 2026-05-04 15:44 | 22.30685 | 114.08449 | 8295 ft | 279 kts | 162° |
| 2026-05-04 15:45 | 22.28772 | 114.08775 | 9186 ft | 280 kts | 180° |
| 2026-05-04 15:45 | 22.26811 | 114.08723 | 9967 ft | 284 kts | 182° |
| 2026-05-04 15:45 | 22.24799 | 114.08694 | 10649 ft | 297 kts | 183° |
| 2026-05-04 15:45 | 22.22625 | 114.08668 | 10869 ft | 327 kts | 184° |
| 2026-05-04 15:46 | 22.20246 | 114.08641 | 11092 ft | 354 kts | 182° |
| 2026-05-04 15:46 | 22.17780 | 114.09050 | 11488 ft | 376 kts | 162° |
| 2026-05-04 15:46 | 22.15508 | 114.10560 | 12319 ft | 393 kts | 140° |
| 2026-05-04 15:46 | 22.13855 | 114.12957 | 13315 ft | 401 kts | 120° |
| 2026-05-04 15:47 | 22.12612 | 114.15690 | 14071 ft | 412 kts | 118° |
| 2026-05-04 15:47 | 22.11353 | 114.18499 | 14950 ft | 418 kts | 118° |
| 2026-05-04 15:47 | 22.10045 | 114.21318 | 15897 ft | 422 kts | 119° |
| 2026-05-04 15:47 | 22.08704 | 114.24145 | 16803 ft | 424 kts | 120° |
| 2026-05-04 15:48 | 22.07077 | 114.26759 | 17459 ft | 427 kts | 137° |
| 2026-05-04 15:48 | 22.04752 | 114.28725 | 18128 ft | 425 kts | 149° |
| 2026-05-04 15:48 | 21.99800 | 114.32432 | 19624 ft | 438 kts | 147° |
| 2026-05-04 15:49 | 21.97325 | 114.34383 | 20435 ft | 442 kts | 147° |
| 2026-05-04 15:49 | 21.94831 | 114.36360 | 21166 ft | 447 kts | 147° |
| 2026-05-04 15:49 | 21.92302 | 114.38356 | 21844 ft | 453 kts | 147° |
| 2026-05-04 15:49 | 21.89746 | 114.40368 | 22505 ft | 458 kts | 148° |
| 2026-05-04 15:50 | 21.87203 | 114.42392 | 23105 ft | 459 kts | 145° |
| 2026-05-04 15:50 | 21.84990 | 114.44956 | 23518 ft | 478 kts | 127° |
| 2026-05-04 15:50 | 21.83581 | 114.48233 | 24079 ft | 488 kts | 108° |
| 2026-05-04 15:50 | 21.82727 | 114.51788 | 24539 ft | 493 kts | 106° |
| 2026-05-04 15:51 | 21.81874 | 114.55387 | 25035 ft | 498 kts | 107° |
| 2026-05-04 15:51 | 21.80997 | 114.58979 | 25604 ft | 501 kts | 107° |
| 2026-05-04 15:51 | 21.80079 | 114.62625 | 26162 ft | 505 kts | 108° |
| 2026-05-04 15:51 | 21.79140 | 114.66290 | 26666 ft | 509 kts | 108° |
| 2026-05-04 15:52 | 21.78182 | 114.69990 | 27145 ft | 514 kts | 108° |
| 2026-05-04 15:52 | 21.77219 | 114.73703 | 27628 ft | 517 kts | 109° |
| 2026-05-04 15:52 | 21.76251 | 114.77446 | 28094 ft | 521 kts | 109° |
| 2026-05-04 15:52 | 21.75285 | 114.81177 | 28504 ft | 526 kts | 109° |
| 2026-05-04 15:53 | 21.74135 | 114.84906 | 28902 ft | 525 kts | 118° |
| 2026-05-04 15:53 | 21.72234 | 114.88220 | 29290 ft | 518 kts | 133° |
| 2026-05-04 15:53 | 21.69924 | 114.91196 | 29761 ft | 518 kts | 135° |
| 2026-05-04 15:53 | 21.67607 | 114.94181 | 30141 ft | 522 kts | 134° |
| 2026-05-04 15:54 | 21.65338 | 114.97274 | 30504 ft | 526 kts | 132° |
| 2026-05-04 15:54 | 21.63121 | 115.00404 | 30959 ft | 527 kts | 131° |
| 2026-05-04 15:54 | 21.60939 | 115.03504 | 31492 ft | 525 kts | 132° |
| 2026-05-04 15:54 | 21.58725 | 115.06636 | 31992 ft | 525 kts | 132° |
| 2026-05-04 15:55 | 21.56507 | 115.09757 | 32498 ft | 524 kts | 132° |
| 2026-05-04 15:55 | 21.54294 | 115.12864 | 32968 ft | 523 kts | 132° |
| 2026-05-04 15:55 | 21.52077 | 115.15975 | 33403 ft | 524 kts | 132° |
| 2026-05-04 15:55 | 21.49887 | 115.19052 | 33858 ft | 523 kts | 132° |
| 2026-05-04 15:56 | 21.47679 | 115.22158 | 34292 ft | 523 kts | 132° |
| 2026-05-04 15:56 | 21.45475 | 115.25260 | 34716 ft | 523 kts | 132° |
| 2026-05-04 15:56 | 21.43273 | 115.28360 | 35161 ft | 522 kts | 132° |
| 2026-05-04 15:56 | 21.41076 | 115.31449 | 35600 ft | 521 kts | 132° |
| 2026-05-04 15:57 | 21.38870 | 115.34547 | 35998 ft | 520 kts | 132° |
| 2026-05-04 15:57 | 21.36665 | 115.37642 | 36360 ft | 520 kts | 132° |
| 2026-05-04 15:57 | 21.34465 | 115.40728 | 36704 ft | 520 kts | 131° |
| 2026-05-04 15:57 | 21.32267 | 115.43811 | 37124 ft | 518 kts | 131° |
| 2026-05-04 15:58 | 21.30112 | 115.46832 | 37588 ft | 514 kts | 131° |
| 2026-05-04 15:58 | 21.27940 | 115.49876 | 38038 ft | 511 kts | 131° |
| 2026-05-04 15:58 | 21.25783 | 115.52896 | 38393 ft | 510 kts | 131° |
| 2026-05-04 15:58 | 21.23625 | 115.55916 | 38643 ft | 510 kts | 131° |
| 2026-05-04 15:59 | 21.21460 | 115.58941 | 38891 ft | 511 kts | 131° |
| 2026-05-04 15:59 | 21.19279 | 115.61986 | 39001 ft | 515 kts | 131° |
| 2026-05-04 15:59 | 21.14917 | 115.68075 | 39070 ft | 516 kts | 131° |
| 2026-05-04 16:00 | 21.11298 | 115.73130 | 39063 ft | 511 kts | 131° |
| 2026-05-04 16:00 | 21.06277 | 115.80126 | 39074 ft | 508 kts | 131° |
| 2026-05-04 16:01 | 21.02690 | 115.85117 | 39077 ft | 507 kts | 131° |
| 2026-05-04 16:01 | 20.98382 | 115.91110 | 39077 ft | 507 kts | 131° |
| 2026-05-04 16:02 | 20.94066 | 115.97105 | 39080 ft | 508 kts | 131° |
| 2026-05-04 16:03 | 20.87568 | 116.06077 | 39068 ft | 507 kts | 134° |
| 2026-05-04 16:03 | 20.82598 | 116.11273 | 39062 ft | 499 kts | 145° |
| 2026-05-04 16:04 | 20.76928 | 116.15495 | 39072 ft | 494 kts | 152° |
| 2026-05-04 16:04 | 20.68205 | 116.21296 | 39061 ft | 494 kts | 152° |
| 2026-05-04 16:05 | 20.62376 | 116.25209 | 39054 ft | 494 kts | 152° |
| 2026-05-04 16:06 | 20.53694 | 116.31078 | 39050 ft | 494 kts | 152° |
| 2026-05-04 16:07 | 20.42062 | 116.38930 | 39046 ft | 493 kts | 152° |
| 2026-05-04 16:08 | 20.30476 | 116.46736 | 39044 ft | 493 kts | 152° |
| 2026-05-04 16:09 | 20.15983 | 116.56479 | 39040 ft | 492 kts | 152° |
| 2026-05-04 16:10 | 20.04396 | 116.64253 | 39038 ft | 493 kts | 152° |
| 2026-05-04 16:11 | 19.96412 | 116.71183 | 39015 ft | 501 kts | 136° |
| 2026-05-04 16:11 | 19.94064 | 116.73929 | 39032 ft | 501 kts | 135° |
| 2026-05-04 16:12 | 19.80072 | 116.90316 | 39008 ft | 498 kts | 136° |
| 2026-05-04 16:13 | 19.70712 | 117.01140 | 39006 ft | 496 kts | 136° |
| 2026-05-04 16:14 | 19.61378 | 117.11915 | 38991 ft | 495 kts | 136° |
| 2026-05-04 16:16 | 19.49734 | 117.25332 | 39006 ft | 495 kts | 136° |
| 2026-05-04 16:17 | 19.38060 | 117.38754 | 38993 ft | 495 kts | 136° |
| 2026-05-04 16:18 | 19.28749 | 117.49437 | 38992 ft | 495 kts | 136° |
| 2026-05-04 16:19 | 19.17080 | 117.62798 | 38985 ft | 495 kts | 136° |
| 2026-05-04 16:20 | 19.05384 | 117.76164 | 38981 ft | 494 kts | 136° |
| 2026-05-04 16:22 | 18.93705 | 117.89461 | 38971 ft | 493 kts | 137° |
| 2026-05-04 16:23 | 18.79718 | 118.05346 | 38961 ft | 491 kts | 137° |
| 2026-05-04 16:25 | 18.65798 | 118.21114 | 38964 ft | 489 kts | 137° |
| 2026-05-04 16:26 | 18.49572 | 118.39446 | 38952 ft | 488 kts | 137° |
| 2026-05-04 16:28 | 18.37995 | 118.52487 | 38942 ft | 489 kts | 137° |
| 2026-05-04 16:29 | 18.21720 | 118.70780 | 38941 ft | 491 kts | 137° |
| 2026-05-04 16:31 | 18.10059 | 118.83857 | 38932 ft | 490 kts | 137° |
| 2026-05-04 16:32 | 17.95199 | 118.98375 | 38936 ft | 480 kts | 154° |
| 2026-05-04 16:33 | 17.83531 | 119.05068 | 38934 ft | 479 kts | 155° |
| 2026-05-04 16:34 | 17.74753 | 119.10113 | 38934 ft | 480 kts | 155° |
| 2026-05-04 16:35 | 17.57214 | 119.20257 | 38927 ft | 481 kts | 154° |
| 2026-05-04 16:36 | 17.48454 | 119.25311 | 38931 ft | 481 kts | 154° |
| 2026-05-04 16:37 | 17.39655 | 119.30386 | 38938 ft | 481 kts | 154° |
| 2026-05-04 16:38 | 17.27939 | 119.37130 | 38937 ft | 482 kts | 154° |
| 2026-05-04 16:39 | 17.13233 | 119.45581 | 38937 ft | 482 kts | 154° |
| 2026-05-04 16:40 | 17.01483 | 119.52325 | 38937 ft | 482 kts | 154° |
| 2026-05-04 16:41 | 16.86774 | 119.60751 | 38938 ft | 483 kts | 154° |
| 2026-05-04 16:43 | 16.72042 | 119.69175 | 38941 ft | 484 kts | 154° |
| 2026-05-04 16:43 | 16.63156 | 119.74246 | 38948 ft | 485 kts | 154° |
| 2026-05-04 16:45 | 16.45413 | 119.84365 | 38945 ft | 485 kts | 154° |
| 2026-05-04 16:46 | 16.30600 | 119.92794 | 38953 ft | 486 kts | 154° |
| 2026-05-04 16:47 | 16.18727 | 119.99540 | 38955 ft | 487 kts | 154° |
| 2026-05-04 16:48 | 16.06802 | 120.06307 | 38953 ft | 488 kts | 154° |
| 2026-05-04 16:49 | 15.95890 | 120.12490 | 38951 ft | 487 kts | 154° |
| 2026-05-04 16:50 | 15.83971 | 120.19233 | 38166 ft | 498 kts | 154° |
| 2026-05-04 16:51 | 15.78049 | 120.22585 | 36773 ft | 472 kts | 154° |
| 2026-05-04 16:51 | 15.75192 | 120.24202 | 36067 ft | 462 kts | 154° |
| 2026-05-04 16:51 | 15.69590 | 120.27362 | 34512 ft | 463 kts | 153° |
| 2026-05-04 16:52 | 15.63785 | 120.30637 | 33237 ft | 492 kts | 153° |
| 2026-05-04 16:52 | 15.60765 | 120.32345 | 32605 ft | 493 kts | 153° |
| 2026-05-04 16:53 | 15.54776 | 120.35734 | 31409 ft | 485 kts | 153° |
| 2026-05-04 16:53 | 15.46191 | 120.40588 | 30756 ft | 451 kts | 153° |
| 2026-05-04 16:54 | 15.43504 | 120.42110 | 30567 ft | 440 kts | 153° |
| 2026-05-04 16:55 | 15.32420 | 120.46305 | 28986 ft | 417 kts | 165° |
| 2026-05-04 16:55 | 15.26862 | 120.47947 | 28112 ft | 412 kts | 164° |
| 2026-05-04 16:56 | 15.21448 | 120.49630 | 27168 ft | 401 kts | 163° |
| 2026-05-04 16:56 | 15.13765 | 120.52069 | 25802 ft | 368 kts | 163° |
| 2026-05-04 16:57 | 15.11320 | 120.52845 | 25402 ft | 366 kts | 163° |
| 2026-05-04 16:57 | 15.06459 | 120.54385 | 24582 ft | 364 kts | 163° |
| 2026-05-04 16:58 | 14.99251 | 120.56663 | 23356 ft | 361 kts | 163° |
| 2026-05-04 16:58 | 14.96848 | 120.57416 | 22944 ft | 360 kts | 163° |
| 2026-05-04 16:59 | 14.92060 | 120.58901 | 22115 ft | 358 kts | 163° |
| 2026-05-04 17:00 | 14.82451 | 120.61823 | 20551 ft | 365 kts | 163° |
| 2026-05-04 17:00 | 14.75196 | 120.63986 | 19454 ft | 350 kts | 163° |
| 2026-05-04 17:01 | 14.70632 | 120.65323 | 18365 ft | 327 kts | 163° |
| 2026-05-04 17:01 | 14.66415 | 120.66531 | 17584 ft | 302 kts | 163° |
| 2026-05-04 17:02 | 14.62351 | 120.67679 | 16915 ft | 314 kts | 163° |
| 2026-05-04 17:02 | 14.57993 | 120.68904 | 16159 ft | 328 kts | 163° |
| 2026-05-04 17:03 | 14.55784 | 120.69522 | 15768 ft | 326 kts | 162° |
| 2026-05-04 17:03 | 14.53714 | 120.70391 | 15414 ft | 319 kts | 151° |
| 2026-05-04 17:03 | 14.49883 | 120.72656 | 14543 ft | 320 kts | 148° |
| 2026-05-04 17:04 | 14.46134 | 120.74959 | 14057 ft | 309 kts | 147° |
| 2026-05-04 17:04 | 14.42447 | 120.77228 | 13392 ft | 308 kts | 147° |
| 2026-05-04 17:05 | 14.38776 | 120.79476 | 12792 ft | 305 kts | 147° |
| 2026-05-04 17:05 | 14.35142 | 120.81692 | 12194 ft | 302 kts | 147° |
| 2026-05-04 17:06 | 14.31554 | 120.83867 | 11613 ft | 299 kts | 147° |
| 2026-05-04 17:06 | 14.29759 | 120.84954 | 11310 ft | 299 kts | 147° |
| 2026-05-04 17:07 | 14.26180 | 120.87126 | 10691 ft | 298 kts | 147° |
| 2026-05-04 17:07 | 14.24986 | 120.87849 | 10488 ft | 297 kts | 147° |
| 2026-05-04 17:07 | 14.22805 | 120.89522 | 9925 ft | 293 kts | 126° |
| 2026-05-04 17:07 | 14.21944 | 120.91344 | 9552 ft | 282 kts | 100° |
| 2026-05-04 17:08 | 14.21958 | 120.93313 | 9077 ft | 274 kts | 74° |
| 2026-05-04 17:08 | 14.24368 | 120.96123 | 7972 ft | 271 kts | 20° |
| 2026-05-04 17:08 | 14.26209 | 120.96359 | 7399 ft | 273 kts | 353° |
| 2026-05-04 17:09 | 14.27978 | 120.95679 | 6866 ft | 274 kts | 325° |
| 2026-05-04 17:09 | 14.29205 | 120.94230 | 6568 ft | 265 kts | 296° |
| 2026-05-04 17:09 | 14.29599 | 120.92431 | 6288 ft | 255 kts | 266° |
| 2026-05-04 17:10 | 14.28296 | 120.89163 | 5792 ft | 244 kts | 238° |
| 2026-05-04 17:10 | 14.25675 | 120.84747 | 5090 ft | 238 kts | 237° |
| 2026-05-04 17:11 | 14.24817 | 120.83321 | 5024 ft | 233 kts | 237° |
| 2026-05-04 17:11 | 14.23958 | 120.81893 | 5012 ft | 237 kts | 237° |
| 2026-05-04 17:11 | 14.22193 | 120.78965 | 5006 ft | 241 kts | 237° |
| 2026-05-04 17:12 | 14.21310 | 120.77502 | 4992 ft | 240 kts | 237° |
| 2026-05-04 17:12 | 14.19558 | 120.74601 | 4988 ft | 237 kts | 237° |
| 2026-05-04 17:13 | 14.17022 | 120.70236 | 4987 ft | 238 kts | 252° |
| 2026-05-04 17:14 | 14.18956 | 120.65961 | 5010 ft | 238 kts | 326° |
| 2026-05-04 17:14 | 14.20320 | 120.64962 | 5010 ft | 241 kts | 327° |
| 2026-05-04 17:14 | 14.23047 | 120.63019 | 4990 ft | 233 kts | 327° |
| 2026-05-04 17:15 | 14.24385 | 120.62069 | 5005 ft | 235 kts | 327° |
| 2026-05-04 17:15 | 14.27216 | 120.60449 | 4988 ft | 232 kts | 355° |
| 2026-05-04 17:16 | 14.30004 | 120.61573 | 4998 ft | 223 kts | 59° |
| 2026-05-04 17:16 | 14.31715 | 120.66065 | 5005 ft | 228 kts | 67° |
| 2026-05-04 17:17 | 14.32384 | 120.67535 | 5005 ft | 230 kts | 64° |
| 2026-05-04 17:17 | 14.34617 | 120.71796 | 4992 ft | 223 kts | 62° |
| 2026-05-04 17:18 | 14.35370 | 120.73198 | 5004 ft | 225 kts | 62° |
| 2026-05-04 17:18 | 14.36901 | 120.76038 | 5002 ft | 227 kts | 62° |
| 2026-05-04 17:19 | 14.38454 | 120.78928 | 4619 ft | 233 kts | 61° |
| 2026-05-04 17:19 | 14.40021 | 120.81838 | 4023 ft | 232 kts | 61° |
| 2026-05-04 17:20 | 14.41531 | 120.84646 | 3420 ft | 212 kts | 61° |
| 2026-05-04 17:20 | 14.42839 | 120.87076 | 2894 ft | 173 kts | 61° |
| 2026-05-04 17:20 | 14.43383 | 120.88087 | 2670 ft | 153 kts | 62° |
| 2026-05-04 17:21 | 14.44389 | 120.89957 | 2316 ft | 151 kts | 62° |
| 2026-05-04 17:21 | 14.45386 | 120.91812 | 1887 ft | 146 kts | 62° |
| 2026-05-04 17:22 | 14.45882 | 120.92734 | 1708 ft | 147 kts | 62° |
| 2026-05-04 17:22 | 14.46373 | 120.93646 | 1513 ft | 147 kts | 62° |
| 2026-05-04 17:23 | 14.47859 | 120.96410 | 928 ft | 147 kts | 62° |
| 2026-05-04 17:23 | 14.48351 | 120.97331 | 735 ft | 146 kts | 62° |
| 2026-05-04 17:23 | 14.49341 | 120.99169 | 319 ft | 146 kts | 62° |
| 2026-05-04 17:24 | 14.49827 | 121.00072 | 135 ft | 146 kts | 62° |
| 2026-05-04 17:24 | 14.50910 | 121.02030 | 66 ft | 42 kts | 59° |
| 2026-05-04 17:25 | 14.51004 | 121.02188 | 69 ft | 26 kts | 52° |
| 2026-05-04 17:25 | 14.51187 | 121.02259 | 69 ft | 12 kts | 257° |
| 2026-05-04 17:26 | 14.51155 | 121.02194 | 64 ft | 5 kts | 240° |
| 2026-05-04 17:26 | 14.51122 | 121.01934 | 74 ft | 23 kts | 315° |
| 2026-05-04 17:27 | 14.51331 | 121.01720 | 68 ft | 15 kts | 315° |
| 2026-05-04 17:27 | 14.51459 | 121.01587 | 72 ft | 10 kts | 315° |
| 2026-05-04 17:28 | 14.51604 | 121.01437 | 68 ft | 20 kts | 315° |
| 2026-05-04 17:29 | 14.51848 | 121.01186 | 74 ft | 0 kts | 315° |
| 2026-05-04 17:32 | 14.51831 | 121.01203 | 63 ft | 11 kts | 314° |
| 2026-05-04 17:33 | 14.51926 | 121.01208 | 68 ft | 7 kts | 42° |
| 2026-05-04 17:33 | 14.51941 | 121.01223 | 69 ft | 0 kts | 43° |